Главная страница
METAR-TAF:

METAR-TAF

Аэропорты :

Илам, Иран

широта: 33-35-09N, долгота: 046-24-20E, высота над уровнем моря: 1334 м

Текущие метеонаблюдения

Эта сводка был подготовлена 39 минут назад, в 17:00 UTC
Ветер 8 Узел от северо-западный
Температура 32°C
Влажность 13%
Давление 1011 hPa
Видимость 10 км и более
Нет облачности ниже 1500 м, и нет кучево-дождевой облачности

METAR: OICI 091700Z 31008KT CAVOK 32/00 Q1011

Время: 22:09 (17:39 UTC)

Прогноз

Эта сводка был подготовлена 9 минут назад, в 17:30 UTC
Прогноз действительный с 09-го 18 UTC до 10-го 24 UTC
Ветер 10 Узел от северо-западный
Видимость: 8000 м
временами
С 10-го 09 UTC до 10-го 16 UTC
Ветер 16 Узел от западный
Видимость: 5000 м
пыль, взвешенная над обширной территорией

TAF: OICI 091730Z 0918/1024 32010KT 8000 NSC TEMPO 1009/1016 28016KT 5000 DU

Метеонаблюдения и прогнозы для более 4000 аэропортов (сводки METAR и TAF).

Имеющиеся станции представлены на карте желтыми и красными точками.

Чтобы увидеть название станции, наведите на нее мышь.

Затем щелкните, чтобы увидеть метеонаблюдения и метеопрогнозы.

Управление картой: чтобы увеличить масштаб, щелкните зеленые кнопки с черным крестиком; чтобы уменьшить масштаб, щелкните зеленую кнопку с тире; для просмотра соседних карт щелкайте зеленые стрелки.


METAR-TAF: